Terminal Aerodrome Forecast
Issued by NWS

Home | Current Version | Previous Version | Text Only | Print | Product List | Glossary On
Versions: 1 2 3 4 5 6 7 8 9 10 11 12 13 14
000
FTUS45 KABQ 221100
TAFTCC
TAF
KTCC 221120Z 2212/2312 24008KT P6SM SCT150
     FM222000 16009KT P6SM VCTS SCT080CB BKN150
      TEMPO 2220/2222 VRB15G30KT TSRA BKN060CB
     FM230000 VRB05KT P6SM FEW080 BKN150=

USA.gov is the U.S. government's official web portal to all federal, state and local government web resources and services.